Filia Ariea — PIET — position and weather

sailwx.info

Track history (hours):
 
Tides and Currents Weather Stations Pressure Air Temp Water Temp Dewpoint Dewpoint Depression Visibility Wind Speed Wind Dir Waves Ship Positions

Filia Ariea

Last reported at 2017-Apr-29 10:59 UTC. Time now 2017-Apr-29 11:29 UTC.
Position N 56°03' W 002°56'.

Length 90 m; draft 3.5 m.

Type: Ship. MMSI: 244662000.

Date/timePositionNaut miles runAvg speedWind from/ knotsBaromVisibWave heightAir tempDewpointWater temp
2017-Apr-29 10:59N 56°03' W 002°56'0 0.1
2017-Apr-29 10:29N 56°03' W 002°56'0 0.0
2017-Apr-29 09:59N 56°03' W 002°56'0 0.0
2017-Apr-29 09:29N 56°03' W 002°56'0 0.0
2017-Apr-29 08:59N 56°03' W 002°56'0 0.0
2017-Apr-29 08:28N 56°03' W 002°56'0 0.0
2017-Apr-29 07:58N 56°03' W 002°56'0 0.0
2017-Apr-29 07:28N 56°03' W 002°56'0 0.0
2017-Apr-29 06:58N 56°03' W 002°56'0 0.0
2017-Apr-29 06:31N 56°03' W 002°56'0 0.0
2017-Apr-29 06:00N 56°03' W 002°56'1 1.1
2017-Apr-29 05:30N 56°03' W 002°55'4 8.2
2017-Apr-29 05:00N 56°05' W 002°49'4 8.0
2017-Apr-29 04:30N 56°06' W 002°42'4 8.0
2017-Apr-29 04:00N 56°05' W 002°35'4 8.1
2017-Apr-29 03:30N 56°04' W 002°28'4 8.0
2017-Apr-29 03:00N 56°03' W 002°21'4 7.9
2017-Apr-29 02:30N 56°02' W 002°14'4 7.8
2017-Apr-29 02:00N 56°01' W 002°08'4 8.2
2017-Apr-29 01:30N 55°60' W 002°01'4 8.5
2017-Apr-29 01:00N 55°58' W 001°54'5 8.7
2017-Apr-29 00:28N 55°56' W 001°46'324 9.1
2017-Apr-27 12:59N 53°35' E 006°39'612.3
2017-Apr-27 12:30N 53°31' E 006°47'4 8.5
2017-Apr-27 12:00N 53°27' E 006°50'0 0.2
2017-Apr-27 10:58N 53°27' E 006°49'0 0.0
2017-Apr-27 10:28N 53°27' E 006°49'0 0.0
2017-Apr-27 09:46N 53°27' E 006°49'0 0.0
2017-Apr-27 08:27N 53°27' E 006°49'0 0.0
2017-Apr-27 07:57N 53°27' E 006°49'0 0.0
2017-Apr-27 07:27N 53°27' E 006°49'0 0.0
2017-Apr-27 06:59N 53°27' E 006°49'0 0.0
2017-Apr-27 05:47N 53°27' E 006°49'0 0.0
2017-Apr-27 05:29N 53°27' E 006°49'0 0.0
2017-Apr-27 04:59N 53°27' E 006°49'0 0.0
2017-Apr-27 04:28N 53°27' E 006°49'0 0.0
2017-Apr-27 03:58N 53°27' E 006°49'0 0.0
2017-Apr-27 03:19N 53°27' E 006°49'0 0.0
2017-Apr-27 02:58N 53°27' E 006°49'0 0.0
2017-Apr-26 18:48N 53°27' E 006°49'0 0.0
2017-Apr-26 15:44N 53°27' E 006°49'0 0.0
2017-Apr-26 15:17N 53°27' E 006°49'0 0.0
2017-Apr-26 14:59N 53°27' E 006°49'0 0.0
2017-Apr-26 14:28N 53°27' E 006°49'0 0.0
2017-Apr-26 12:40N 53°27' E 006°49'0 0.0
2017-Apr-26 12:27N 53°27' E 006°49'0 0.0
2017-Apr-26 11:48N 53°27' E 006°49'0 0.0
2017-Apr-26 11:21N 53°27' E 006°49'0 0.1
2017-Apr-26 10:05N 53°27' E 006°49'0 0.2
2017-Apr-26 09:50N 53°27' E 006°49'0 0.6
2017-Apr-26 09:18N 53°27' E 006°50'0 0.0
2017-Apr-26 09:00N 53°27' E 006°50'0 0.0
2017-Apr-26 08:30N 53°27' E 006°50'0 0.0
2017-Apr-26 07:59N 53°27' E 006°50'0 0.0
2017-Apr-26 07:29N 53°27' E 006°50'0 0.0
2017-Apr-26 06:59N 53°27' E 006°50'0 0.0
2017-Apr-26 06:29N 53°27' E 006°50'0 0.0
2017-Apr-26 05:58N 53°27' E 006°50'0 0.0
2017-Apr-26 02:36N 53°27' E 006°50'0 0.0
2017-Apr-26 02:06N 53°27' E 006°50'0 0.0
2017-Apr-26 01:51N 53°27' E 006°50'0 0.0
2017-Apr-26 01:17N 53°27' E 006°50'0 0.0
2017-Apr-26 00:59N 53°27' E 006°50'0 0.0
2017-Apr-26 00:26N 53°27' E 006°50'0 0.0
2017-Apr-25 20:49N 53°27' E 006°50'0 0.0
2017-Apr-25 19:42N 53°27' E 006°50'0 0.0
2017-Apr-25 19:18N 53°27' E 006°50'0 0.0
2017-Apr-25 18:54N 53°27' E 006°50'0 0.0
2017-Apr-25 18:30N 53°27' E 006°50'0 0.0
2017-Apr-25 17:59N 53°27' E 006°50'0 0.0
2017-Apr-25 17:29N 53°27' E 006°50'0 0.0
2017-Apr-25 16:59N 53°27' E 006°50'0 0.0
2017-Apr-25 16:29N 53°27' E 006°50'0 0.0
2017-Apr-25 15:58N 53°27' E 006°50'0 0.0
2017-Apr-25 15:28N 53°27' E 006°50'0 0.0
2017-Apr-25 14:58N 53°27' E 006°50'0 0.0
2017-Apr-25 13:58N 53°27' E 006°50'0 0.0
2017-Apr-25 13:30N 53°27' E 006°50'0 0.0
2017-Apr-25 13:00N 53°27' E 006°50'0 0.0
2017-Apr-25 12:27N 53°27' E 006°50'0 0.0
2017-Apr-25 08:19N 53°27' E 006°50'0 0.0
2017-Apr-25 07:58N 53°27' E 006°50'0 0.0
2017-Apr-25 07:28N 53°27' E 006°50'0 0.0
2017-Apr-25 06:57N 53°27' E 006°50'1 2.7
2017-Apr-25 06:30N 53°29' E 006°49'64 9.9
2017-Apr-25 00:03N 53°25' E 005°02'0 8.7
2017-Apr-25 00:00N 53°24' E 005°01'19 8.7
2017-Apr-24 21:53N 53°11' E 004°40'3 8.7
2017-Apr-24 21:30N 53°08' E 004°38'4 8.8
2017-Apr-24 21:00N 53°04' E 004°34'4 8.5
2017-Apr-24 20:30N 53°00' E 004°31'4 8.3
2017-Apr-24 20:00N 52°56' E 004°30'4 8.5
2017-Apr-24 19:30N 52°52' E 004°28'4 8.6
2017-Apr-24 19:00N 52°48' E 004°26'4 8.7
2017-Apr-24 18:30N 52°44' E 004°24'4 9.0
2017-Apr-24 18:00N 52°39' E 004°21'4 9.0
2017-Apr-24 17:30N 52°35' E 004°21'5 9.5
2017-Apr-24 17:00N 52°30' E 004°22'5 9.6
2017-Apr-24 16:30N 52°26' E 004°20'510.1
2017-Apr-24 16:00N 52°21' E 004°16'510.5
2017-Apr-24 15:30N 52°16' E 004°13'510.5
2017-Apr-24 15:00N 52°11' E 004°10'611.5
2017-Apr-24 14:30N 52°06' E 004°07'8 8.1
2017-Apr-24 13:30N 51°58' E 004°09'5 9.1
2017-Apr-24 13:00N 51°55' E 004°14'4 8.3
2017-Apr-24 12:31N 51°54' E 004°21'3 6.7
2017-Apr-24 12:00N 51°54' E 004°26'0 0.5
2017-Apr-24 11:26N 51°54' E 004°26'0 0.0
2017-Apr-24 11:00N 51°54' E 004°26'0 0.0
2017-Apr-24 10:29N 51°54' E 004°26'0 0.0
2017-Apr-24 09:59N 51°54' E 004°26'0 0.0
2017-Apr-24 09:29N 51°54' E 004°26'0 0.0
2017-Apr-24 08:59N 51°54' E 004°26'0 0.0
2017-Apr-24 08:28N 51°54' E 004°26'0 0.0
2017-Apr-24 08:00N 51°54' E 004°26'0 0.2
2017-Apr-24 07:30N 51°54' E 004°26'0 0.0
2017-Apr-24 07:00N 51°54' E 004°26'0 0.0
2017-Apr-24 06:30N 51°54' E 004°26'0 0.0
2017-Apr-24 06:00N 51°54' E 004°26'0 0.0
2017-Apr-24 05:30N 51°54' E 004°26'0 0.0
2017-Apr-24 05:00N 51°54' E 004°26'0 0.0
2017-Apr-24 04:29N 51°54' E 004°26'0 0.0
2017-Apr-24 03:59N 51°54' E 004°26'0 0.0
2017-Apr-24 03:29N 51°54' E 004°26'0 0.0
2017-Apr-24 02:59N 51°54' E 004°26'0 0.0
2017-Apr-24 02:28N 51°54' E 004°26'0 0.0
2017-Apr-24 01:58N 51°54' E 004°26'0 0.0
2017-Apr-24 01:28N 51°54' E 004°26'0 0.0
2017-Apr-24 01:00N 51°54' E 004°26'0 0.0
2017-Apr-24 00:30N 51°54' E 004°26'0 0.0
2017-Apr-24 00:00N 51°54' E 004°26'0 0.0
2017-Apr-23 23:27N 51°54' E 004°26'0 0.0
2017-Apr-23 23:00N 51°54' E 004°26'0 0.0
2017-Apr-23 22:29N 51°54' E 004°26'0 0.0
2017-Apr-23 21:59N 51°54' E 004°26'0 0.0
2017-Apr-23 21:29N 51°54' E 004°26'0 0.0
2017-Apr-23 20:59N 51°54' E 004°26'0 0.0
2017-Apr-23 20:28N 51°54' E 004°26'0 0.0
2017-Apr-23 19:59N 51°54' E 004°26'0 0.0
2017-Apr-23 19:28N 51°54' E 004°26'0 0.0
2017-Apr-23 18:58N 51°54' E 004°26'0 0.0
2017-Apr-23 18:29N 51°54' E 004°26'0 0.0
2017-Apr-23 18:00N 51°54' E 004°26'0 0.0
2017-Apr-23 17:30N 51°54' E 004°26'0 0.0
2017-Apr-23 17:00N 51°54' E 004°26'0 0.0
2017-Apr-23 16:30N 51°54' E 004°26'0 0.0
2017-Apr-23 16:00N 51°54' E 004°26'0 0.0
2017-Apr-23 15:30N 51°54' E 004°26'0 0.0
2017-Apr-23 14:59N 51°54' E 004°26'0 0.0
2017-Apr-23 13:59N 51°54' E 004°26'0 0.0
2017-Apr-23 13:28N 51°54' E 004°26'0 0.0
2017-Apr-23 12:59N 51°54' E 004°26'0 0.0
2017-Apr-23 12:25N 51°54' E 004°26'0 0.0
2017-Apr-23 11:58N 51°54' E 004°26'0 0.0
2017-Apr-23 11:28N 51°54' E 004°26'0 0.0
2017-Apr-23 11:00N 51°54' E 004°26'0 0.0
2017-Apr-23 10:30N 51°54' E 004°26'0 0.0
2017-Apr-23 10:00N 51°54' E 004°26'0 0.0
2017-Apr-23 09:30N 51°54' E 004°26'0 0.0
2017-Apr-23 09:00N 51°54' E 004°26'0 0.0
2017-Apr-23 08:30N 51°54' E 004°26'0 0.0
2017-Apr-23 08:00N 51°54' E 004°26'0 0.0
2017-Apr-23 07:29N 51°54' E 004°26'0 0.0
2017-Apr-23 06:59N 51°54' E 004°26'0 0.0
2017-Apr-23 06:28N 51°54' E 004°26'0 0.0
2017-Apr-23 05:59N 51°54' E 004°26'0 0.0
2017-Apr-23 05:29N 51°54' E 004°26'0 0.0
2017-Apr-23 04:58N 51°54' E 004°26'0 0.0
2017-Apr-23 04:28N 51°54' E 004°26'0 0.0
2017-Apr-23 03:57N 51°54' E 004°26'0 0.0
2017-Apr-23 03:30N 51°54' E 004°26'0 0.0
2017-Apr-23 03:00N 51°54' E 004°26'0 0.0
2017-Apr-23 02:30N 51°54' E 004°26'0 0.0
2017-Apr-23 02:00N 51°54' E 004°26'0 0.0
2017-Apr-23 01:29N 51°54' E 004°26'0 0.0
2017-Apr-23 00:59N 51°54' E 004°26'0 0.0
2017-Apr-23 00:26N 51°54' E 004°26'0 0.0
2017-Apr-22 23:59N 51°54' E 004°26'0 0.0
2017-Apr-22 23:28N 51°54' E 004°26'0 0.0
2017-Apr-22 22:59N 51°54' E 004°26'0 0.0
2017-Apr-22 22:28N 51°54' E 004°26'0 0.0
2017-Apr-22 21:58N 51°54' E 004°26'0 0.0
2017-Apr-22 21:27N 51°54' E 004°26'0 0.0
2017-Apr-22 21:00N 51°54' E 004°26'0 0.0
2017-Apr-22 20:30N 51°54' E 004°26'0 0.0
2017-Apr-22 20:00N 51°54' E 004°26'0 0.0
2017-Apr-22 19:30N 51°54' E 004°26'0 0.0
2017-Apr-22 18:59N 51°54' E 004°26'0 0.0
2017-Apr-22 18:30N 51°54' E 004°26'0 0.0
2017-Apr-22 17:59N 51°54' E 004°26'0 0.0
2017-Apr-22 17:29N 51°54' E 004°26'0 0.0
2017-Apr-22 16:59N 51°54' E 004°26'0 0.0
2017-Apr-22 16:28N 51°54' E 004°26'0 0.0
2017-Apr-22 15:58N 51°54' E 004°26'0 0.0
2017-Apr-22 15:28N 51°54' E 004°26'0 0.0
2017-Apr-22 14:58N 51°54' E 004°26'0 0.0
2017-Apr-22 14:30N 51°54' E 004°26'0 0.0
2017-Apr-22 13:30N 51°54' E 004°26'0 0.0
2017-Apr-22 13:00N 51°54' E 004°26'0 0.0
2017-Apr-22 12:30N 51°54' E 004°26'0 0.0
2017-Apr-22 11:59N 51°54' E 004°26'0 0.0
2017-Apr-22 11:30N 51°54' E 004°26'0 0.0
2017-Apr-22 10:59N 51°54' E 004°26'0 0.0
2017-Apr-22 10:29N 51°54' E 004°26'0 0.0
2017-Apr-22 09:59N 51°54' E 004°26'0 0.0
2017-Apr-22 09:29N 51°54' E 004°26'0 0.0
2017-Apr-22 08:58N 51°54' E 004°26'0 0.0
2017-Apr-22 08:28N 51°54' E 004°26'0 0.0
2017-Apr-22 07:58N 51°54' E 004°26'0 0.0
2017-Apr-22 07:31N 51°54' E 004°26'0 0.0
2017-Apr-22 07:00N 51°54' E 004°26'0 0.0
2017-Apr-22 06:30N 51°54' E 004°26'0 0.0
2017-Apr-22 06:00N 51°54' E 004°26'0 0.0
2017-Apr-22 05:30N 51°54' E 004°26'0 0.0
2017-Apr-22 04:59N 51°54' E 004°26'0 0.0
2017-Apr-22 04:30N 51°54' E 004°26'0 0.0
2017-Apr-22 03:59N 51°54' E 004°26'0 0.0
2017-Apr-22 03:29N 51°54' E 004°26'0 0.0
2017-Apr-22 02:59N 51°54' E 004°26'0 0.0
2017-Apr-22 02:29N 51°54' E 004°26'0 0.0
2017-Apr-22 01:57N 51°54' E 004°26'0 0.0
2017-Apr-22 01:25N 51°54' E 004°26'0 0.0
2017-Apr-22 00:55N 51°54' E 004°26'0 0.0
2017-Apr-22 00:30N 51°54' E 004°26'0 0.0
2017-Apr-22 00:00N 51°54' E 004°26'0 0.0
2017-Apr-21 23:30N 51°54' E 004°26'0 0.0
2017-Apr-21 23:00N 51°54' E 004°26'0 0.0
2017-Apr-21 22:30N 51°54' E 004°26'0 0.0
2017-Apr-21 22:00N 51°54' E 004°26'0 0.0
2017-Apr-21 21:30N 51°54' E 004°26'0 0.0
2017-Apr-21 20:59N 51°54' E 004°26'0 0.0
2017-Apr-21 20:29N 51°54' E 004°26'0 0.0
2017-Apr-21 19:58N 51°54' E 004°26'0 0.0
2017-Apr-21 19:28N 51°54' E 004°26'0 0.0
2017-Apr-21 18:58N 51°54' E 004°26'0 0.0
2017-Apr-21 18:28N 51°54' E 004°26'0 0.0
2017-Apr-21 18:00N 51°54' E 004°26'2 4.7
2017-Apr-21 17:31N 51°54' E 004°22'4 8.9
2017-Apr-21 17:00N 51°55' E 004°15'4 8.4
2017-Apr-21 16:30N 51°57' E 004°09'4 8.1
2017-Apr-21 16:00N 51°59' E 004°03'5 9.2
2017-Apr-21 15:30N 52°01' E 003°56'510.4
2017-Apr-21 15:00N 52°02' E 003°48'1310.6
2017-Apr-21 13:47N 52°15' E 003°42'310.6
2017-Apr-21 13:28N 52°18' E 003°39'510.5
2017-Apr-21 13:00N 52°22' E 003°36'1210.4
2017-Apr-21 11:49N 52°33' E 003°26'310.3
2017-Apr-21 11:28N 52°36' E 003°23'510.2
2017-Apr-21 10:59N 52°40' E 003°19'510.1
2017-Apr-21 10:29N 52°45' E 003°16'710.8
2017-Apr-21 09:50N 52°51' E 003°10'  
Track history (hours):
 
Tides and Currents Weather Stations Pressure Air Temp Water Temp Dewpoint Dewpoint Depression Visibility Wind Speed Wind Dir Waves Ship Positions

Filia Ariea

Last reported at 2017-Apr-29 10:59 UTC. Time now 2017-Apr-29 11:29 UTC.
Position N 56°03' W 002°56'.

Length 90 m; draft 3.5 m.

Type: Ship. MMSI: 244662000.

Date/timePositionNaut miles runAvg speedWind from/ knotsBaromVisibWave heightAir tempDewpointWater temp
2017-Apr-29 10:59N 56°03' W 002°56'0 0.1
2017-Apr-29 10:29N 56°03' W 002°56'0 0.0
2017-Apr-29 09:59N 56°03' W 002°56'0 0.0
2017-Apr-29 09:29N 56°03' W 002°56'0 0.0
2017-Apr-29 08:59N 56°03' W 002°56'0 0.0
2017-Apr-29 08:28N 56°03' W 002°56'0 0.0
2017-Apr-29 07:58N 56°03' W 002°56'0 0.0
2017-Apr-29 07:28N 56°03' W 002°56'0 0.0
2017-Apr-29 06:58N 56°03' W 002°56'0 0.0
2017-Apr-29 06:31N 56°03' W 002°56'0 0.0
2017-Apr-29 06:00N 56°03' W 002°56'1 1.1
2017-Apr-29 05:30N 56°03' W 002°55'4 8.2
2017-Apr-29 05:00N 56°05' W 002°49'4 8.0
2017-Apr-29 04:30N 56°06' W 002°42'4 8.0
2017-Apr-29 04:00N 56°05' W 002°35'4 8.1
2017-Apr-29 03:30N 56°04' W 002°28'4 8.0
2017-Apr-29 03:00N 56°03' W 002°21'4 7.9
2017-Apr-29 02:30N 56°02' W 002°14'4 7.8
2017-Apr-29 02:00N 56°01' W 002°08'4 8.2
2017-Apr-29 01:30N 55°60' W 002°01'4 8.5
2017-Apr-29 01:00N 55°58' W 001°54'5 8.7
2017-Apr-29 00:28N 55°56' W 001°46'324 9.1
2017-Apr-27 12:59N 53°35' E 006°39'612.3
2017-Apr-27 12:30N 53°31' E 006°47'4 8.5
2017-Apr-27 12:00N 53°27' E 006°50'0 0.2
2017-Apr-27 10:58N 53°27' E 006°49'0 0.0
2017-Apr-27 10:28N 53°27' E 006°49'0 0.0
2017-Apr-27 09:46N 53°27' E 006°49'0 0.0
2017-Apr-27 08:27N 53°27' E 006°49'0 0.0
2017-Apr-27 07:57N 53°27' E 006°49'0 0.0
2017-Apr-27 07:27N 53°27' E 006°49'0 0.0
2017-Apr-27 06:59N 53°27' E 006°49'0 0.0
2017-Apr-27 05:47N 53°27' E 006°49'0 0.0
2017-Apr-27 05:29N 53°27' E 006°49'0 0.0
2017-Apr-27 04:59N 53°27' E 006°49'0 0.0
2017-Apr-27 04:28N 53°27' E 006°49'0 0.0
2017-Apr-27 03:58N 53°27' E 006°49'0 0.0
2017-Apr-27 03:19N 53°27' E 006°49'0 0.0
2017-Apr-27 02:58N 53°27' E 006°49'0 0.0
2017-Apr-26 18:48N 53°27' E 006°49'0 0.0
2017-Apr-26 15:44N 53°27' E 006°49'0 0.0
2017-Apr-26 15:17N 53°27' E 006°49'0 0.0
2017-Apr-26 14:59N 53°27' E 006°49'0 0.0
2017-Apr-26 14:28N 53°27' E 006°49'0 0.0
2017-Apr-26 12:40N 53°27' E 006°49'0 0.0
2017-Apr-26 12:27N 53°27' E 006°49'0 0.0
2017-Apr-26 11:48N 53°27' E 006°49'0 0.0
2017-Apr-26 11:21N 53°27' E 006°49'0 0.1
2017-Apr-26 10:05N 53°27' E 006°49'0 0.2
2017-Apr-26 09:50N 53°27' E 006°49'0 0.6
2017-Apr-26 09:18N 53°27' E 006°50'0 0.0
2017-Apr-26 09:00N 53°27' E 006°50'0 0.0
2017-Apr-26 08:30N 53°27' E 006°50'0 0.0
2017-Apr-26 07:59N 53°27' E 006°50'0 0.0
2017-Apr-26 07:29N 53°27' E 006°50'0 0.0
2017-Apr-26 06:59N 53°27' E 006°50'0 0.0
2017-Apr-26 06:29N 53°27' E 006°50'0 0.0
2017-Apr-26 05:58N 53°27' E 006°50'0 0.0
2017-Apr-26 02:36N 53°27' E 006°50'0 0.0
2017-Apr-26 02:06N 53°27' E 006°50'0 0.0
2017-Apr-26 01:51N 53°27' E 006°50'0 0.0
2017-Apr-26 01:17N 53°27' E 006°50'0 0.0
2017-Apr-26 00:59N 53°27' E 006°50'0 0.0
2017-Apr-26 00:26N 53°27' E 006°50'0 0.0
2017-Apr-25 20:49N 53°27' E 006°50'0 0.0
2017-Apr-25 19:42N 53°27' E 006°50'0 0.0
2017-Apr-25 19:18N 53°27' E 006°50'0 0.0
2017-Apr-25 18:54N 53°27' E 006°50'0 0.0
2017-Apr-25 18:30N 53°27' E 006°50'0 0.0
2017-Apr-25 17:59N 53°27' E 006°50'0 0.0
2017-Apr-25 17:29N 53°27' E 006°50'0 0.0
2017-Apr-25 16:59N 53°27' E 006°50'0 0.0
2017-Apr-25 16:29N 53°27' E 006°50'0 0.0
2017-Apr-25 15:58N 53°27' E 006°50'0 0.0
2017-Apr-25 15:28N 53°27' E 006°50'0 0.0
2017-Apr-25 14:58N 53°27' E 006°50'0 0.0
2017-Apr-25 13:58N 53°27' E 006°50'0 0.0
2017-Apr-25 13:30N 53°27' E 006°50'0 0.0
2017-Apr-25 13:00N 53°27' E 006°50'0 0.0
2017-Apr-25 12:27N 53°27' E 006°50'0 0.0
2017-Apr-25 08:19N 53°27' E 006°50'0 0.0
2017-Apr-25 07:58N 53°27' E 006°50'0 0.0
2017-Apr-25 07:28N 53°27' E 006°50'0 0.0
2017-Apr-25 06:57N 53°27' E 006°50'1 2.7
2017-Apr-25 06:30N 53°29' E 006°49'64 9.9
2017-Apr-25 00:03N 53°25' E 005°02'0 8.7
2017-Apr-25 00:00N 53°24' E 005°01'19 8.7
2017-Apr-24 21:53N 53°11' E 004°40'3 8.7
2017-Apr-24 21:30N 53°08' E 004°38'4 8.8
2017-Apr-24 21:00N 53°04' E 004°34'4 8.5
2017-Apr-24 20:30N 53°00' E 004°31'4 8.3
2017-Apr-24 20:00N 52°56' E 004°30'4 8.5
2017-Apr-24 19:30N 52°52' E 004°28'4 8.6
2017-Apr-24 19:00N 52°48' E 004°26'4 8.7
2017-Apr-24 18:30N 52°44' E 004°24'4 9.0
2017-Apr-24 18:00N 52°39' E 004°21'4 9.0
2017-Apr-24 17:30N 52°35' E 004°21'5 9.5
2017-Apr-24 17:00N 52°30' E 004°22'5 9.6
2017-Apr-24 16:30N 52°26' E 004°20'510.1
2017-Apr-24 16:00N 52°21' E 004°16'510.5
2017-Apr-24 15:30N 52°16' E 004°13'510.5
2017-Apr-24 15:00N 52°11' E 004°10'611.5
2017-Apr-24 14:30N 52°06' E 004°07'8 8.1
2017-Apr-24 13:30N 51°58' E 004°09'5 9.1
2017-Apr-24 13:00N 51°55' E 004°14'4 8.3
2017-Apr-24 12:31N 51°54' E 004°21'3 6.7
2017-Apr-24 12:00N 51°54' E 004°26'0 0.5
2017-Apr-24 11:26N 51°54' E 004°26'0 0.0
2017-Apr-24 11:00N 51°54' E 004°26'0 0.0
2017-Apr-24 10:29N 51°54' E 004°26'0 0.0
2017-Apr-24 09:59N 51°54' E 004°26'0 0.0
2017-Apr-24 09:29N 51°54' E 004°26'0 0.0
2017-Apr-24 08:59N 51°54' E 004°26'0 0.0
2017-Apr-24 08:28N 51°54' E 004°26'0 0.0
2017-Apr-24 08:00N 51°54' E 004°26'0 0.2
2017-Apr-24 07:30N 51°54' E 004°26'0 0.0
2017-Apr-24 07:00N 51°54' E 004°26'0 0.0
2017-Apr-24 06:30N 51°54' E 004°26'0 0.0
2017-Apr-24 06:00N 51°54' E 004°26'0 0.0
2017-Apr-24 05:30N 51°54' E 004°26'0 0.0
2017-Apr-24 05:00N 51°54' E 004°26'0 0.0
2017-Apr-24 04:29N 51°54' E 004°26'0 0.0
2017-Apr-24 03:59N 51°54' E 004°26'0 0.0
2017-Apr-24 03:29N 51°54' E 004°26'0 0.0
2017-Apr-24 02:59N 51°54' E 004°26'0 0.0
2017-Apr-24 02:28N 51°54' E 004°26'0 0.0
2017-Apr-24 01:58N 51°54' E 004°26'0 0.0
2017-Apr-24 01:28N 51°54' E 004°26'0 0.0
2017-Apr-24 01:00N 51°54' E 004°26'0 0.0
2017-Apr-24 00:30N 51°54' E 004°26'0 0.0
2017-Apr-24 00:00N 51°54' E 004°26'0 0.0
2017-Apr-23 23:27N 51°54' E 004°26'0 0.0
2017-Apr-23 23:00N 51°54' E 004°26'0 0.0
2017-Apr-23 22:29N 51°54' E 004°26'0 0.0
2017-Apr-23 21:59N 51°54' E 004°26'0 0.0
2017-Apr-23 21:29N 51°54' E 004°26'0 0.0
2017-Apr-23 20:59N 51°54' E 004°26'0 0.0
2017-Apr-23 20:28N 51°54' E 004°26'0 0.0
2017-Apr-23 19:59N 51°54' E 004°26'0 0.0
2017-Apr-23 19:28N 51°54' E 004°26'0 0.0
2017-Apr-23 18:58N 51°54' E 004°26'0 0.0
2017-Apr-23 18:29N 51°54' E 004°26'0 0.0
2017-Apr-23 18:00N 51°54' E 004°26'0 0.0
2017-Apr-23 17:30N 51°54' E 004°26'0 0.0
2017-Apr-23 17:00N 51°54' E 004°26'0 0.0
2017-Apr-23 16:30N 51°54' E 004°26'0 0.0
2017-Apr-23 16:00N 51°54' E 004°26'0 0.0
2017-Apr-23 15:30N 51°54' E 004°26'0 0.0
2017-Apr-23 14:59N 51°54' E 004°26'0 0.0
2017-Apr-23 13:59N 51°54' E 004°26'0 0.0
2017-Apr-23 13:28N 51°54' E 004°26'0 0.0
2017-Apr-23 12:59N 51°54' E 004°26'0 0.0
2017-Apr-23 12:25N 51°54' E 004°26'0 0.0
2017-Apr-23 11:58N 51°54' E 004°26'0 0.0
2017-Apr-23 11:28N 51°54' E 004°26'0 0.0
2017-Apr-23 11:00N 51°54' E 004°26'0 0.0
2017-Apr-23 10:30N 51°54' E 004°26'0 0.0
2017-Apr-23 10:00N 51°54' E 004°26'0 0.0
2017-Apr-23 09:30N 51°54' E 004°26'0 0.0
2017-Apr-23 09:00N 51°54' E 004°26'0 0.0
2017-Apr-23 08:30N 51°54' E 004°26'0 0.0
2017-Apr-23 08:00N 51°54' E 004°26'0 0.0
2017-Apr-23 07:29N 51°54' E 004°26'0 0.0
2017-Apr-23 06:59N 51°54' E 004°26'0 0.0
2017-Apr-23 06:28N 51°54' E 004°26'0 0.0
2017-Apr-23 05:59N 51°54' E 004°26'0 0.0
2017-Apr-23 05:29N 51°54' E 004°26'0 0.0
2017-Apr-23 04:58N 51°54' E 004°26'0 0.0
2017-Apr-23 04:28N 51°54' E 004°26'0 0.0
2017-Apr-23 03:57N 51°54' E 004°26'0 0.0
2017-Apr-23 03:30N 51°54' E 004°26'0 0.0
2017-Apr-23 03:00N 51°54' E 004°26'0 0.0
2017-Apr-23 02:30N 51°54' E 004°26'0 0.0
2017-Apr-23 02:00N 51°54' E 004°26'0 0.0
2017-Apr-23 01:29N 51°54' E 004°26'0 0.0
2017-Apr-23 00:59N 51°54' E 004°26'0 0.0
2017-Apr-23 00:26N 51°54' E 004°26'0 0.0
2017-Apr-22 23:59N 51°54' E 004°26'0 0.0
2017-Apr-22 23:28N 51°54' E 004°26'0 0.0
2017-Apr-22 22:59N 51°54' E 004°26'0 0.0
2017-Apr-22 22:28N 51°54' E 004°26'0 0.0
2017-Apr-22 21:58N 51°54' E 004°26'0 0.0
2017-Apr-22 21:27N 51°54' E 004°26'0 0.0
2017-Apr-22 21:00N 51°54' E 004°26'0 0.0
2017-Apr-22 20:30N 51°54' E 004°26'0 0.0
2017-Apr-22 20:00N 51°54' E 004°26'0 0.0
2017-Apr-22 19:30N 51°54' E 004°26'0 0.0
2017-Apr-22 18:59N 51°54' E 004°26'0 0.0
2017-Apr-22 18:30N 51°54' E 004°26'0 0.0
2017-Apr-22 17:59N 51°54' E 004°26'0 0.0
2017-Apr-22 17:29N 51°54' E 004°26'0 0.0
2017-Apr-22 16:59N 51°54' E 004°26'0 0.0
2017-Apr-22 16:28N 51°54' E 004°26'0 0.0
2017-Apr-22 15:58N 51°54' E 004°26'0 0.0
2017-Apr-22 15:28N 51°54' E 004°26'0 0.0
2017-Apr-22 14:58N 51°54' E 004°26'0 0.0
2017-Apr-22 14:30N 51°54' E 004°26'0 0.0
2017-Apr-22 13:30N 51°54' E 004°26'0 0.0
2017-Apr-22 13:00N 51°54' E 004°26'0 0.0
2017-Apr-22 12:30N 51°54' E 004°26'0 0.0
2017-Apr-22 11:59N 51°54' E 004°26'0 0.0
2017-Apr-22 11:30N 51°54' E 004°26'0 0.0
2017-Apr-22 10:59N 51°54' E 004°26'0 0.0
2017-Apr-22 10:29N 51°54' E 004°26'0 0.0
2017-Apr-22 09:59N 51°54' E 004°26'0 0.0
2017-Apr-22 09:29N 51°54' E 004°26'0 0.0
2017-Apr-22 08:58N 51°54' E 004°26'0 0.0
2017-Apr-22 08:28N 51°54' E 004°26'0 0.0
2017-Apr-22 07:58N 51°54' E 004°26'0 0.0
2017-Apr-22 07:31N 51°54' E 004°26'0 0.0
2017-Apr-22 07:00N 51°54' E 004°26'0 0.0
2017-Apr-22 06:30N 51°54' E 004°26'0 0.0
2017-Apr-22 06:00N 51°54' E 004°26'0 0.0
2017-Apr-22 05:30N 51°54' E 004°26'0 0.0
2017-Apr-22 04:59N 51°54' E 004°26'0 0.0
2017-Apr-22 04:30N 51°54' E 004°26'0 0.0
2017-Apr-22 03:59N 51°54' E 004°26'0 0.0
2017-Apr-22 03:29N 51°54' E 004°26'0 0.0
2017-Apr-22 02:59N 51°54' E 004°26'0 0.0
2017-Apr-22 02:29N 51°54' E 004°26'0 0.0
2017-Apr-22 01:57N 51°54' E 004°26'0 0.0
2017-Apr-22 01:25N 51°54' E 004°26'0 0.0
2017-Apr-22 00:55N 51°54' E 004°26'0 0.0
2017-Apr-22 00:30N 51°54' E 004°26'0 0.0
2017-Apr-22 00:00N 51°54' E 004°26'0 0.0
2017-Apr-21 23:30N 51°54' E 004°26'0 0.0
2017-Apr-21 23:00N 51°54' E 004°26'0 0.0
2017-Apr-21 22:30N 51°54' E 004°26'0 0.0
2017-Apr-21 22:00N 51°54' E 004°26'0 0.0
2017-Apr-21 21:30N 51°54' E 004°26'0 0.0
2017-Apr-21 20:59N 51°54' E 004°26'0 0.0
2017-Apr-21 20:29N 51°54' E 004°26'0 0.0
2017-Apr-21 19:58N 51°54' E 004°26'0 0.0
2017-Apr-21 19:28N 51°54' E 004°26'0 0.0
2017-Apr-21 18:58N 51°54' E 004°26'0 0.0
2017-Apr-21 18:28N 51°54' E 004°26'0 0.0
2017-Apr-21 18:00N 51°54' E 004°26'2 4.7
2017-Apr-21 17:31N 51°54' E 004°22'4 8.9
2017-Apr-21 17:00N 51°55' E 004°15'4 8.4
2017-Apr-21 16:30N 51°57' E 004°09'4 8.1
2017-Apr-21 16:00N 51°59' E 004°03'5 9.2
2017-Apr-21 15:30N 52°01' E 003°56'510.4
2017-Apr-21 15:00N 52°02' E 003°48'1310.6
2017-Apr-21 13:47N 52°15' E 003°42'310.6
2017-Apr-21 13:28N 52°18' E 003°39'510.5
2017-Apr-21 13:00N 52°22' E 003°36'1210.4
2017-Apr-21 11:49N 52°33' E 003°26'310.3
2017-Apr-21 11:28N 52°36' E 003°23'510.2
2017-Apr-21 10:59N 52°40' E 003°19'510.1
2017-Apr-21 10:29N 52°45' E 003°16'710.8
2017-Apr-21 09:50N 52°51' E 003°10'  

Dump ship's entire track history